Time;durP1;ratioP1;P1;durP2;ratioP2;P2;SDS_P1;SDS_P2;PMS_P1;PMS_P2;Temp;Humidity;BMP_temperature;BMP_pressure;BME280_temperature;BME280_humidity;BME280_pressure;Samples;Min_cycle;Max_cycle;Signal;HPM_P1;HPM_P2
2022/05/15 00:00:59;;;;;;;7.30;6.70;;;;;;;18.14;nan;95207.50;4991336;28;20204;-71
2022/05/15 00:03:26;;;;;;;9.75;7.03;;;;;;;18.21;nan;95214.78;4991203;28;20218;-70
2022/05/15 00:05:56;;;;;;;7.90;7.20;;;;;;;17.96;nan;95212.03;4991318;28;20209;-70
2022/05/15 00:08:24;;;;;;;7.15;6.47;;;;;;;17.79;nan;95225.06;4990813;28;20197;-70
2022/05/15 00:10:54;;;;;;;7.15;6.55;;;;;;;17.57;nan;95221.13;4991172;28;20605;-70
2022/05/15 00:13:22;;;;;;;10.68;7.57;;;;;;;17.64;nan;95212.19;4990648;28;20193;-70
2022/05/15 00:15:49;;;;;;;14.40;13.00;;;;;;;17.78;nan;95215.69;4991635;28;20204;-70
2022/05/15 00:18:16;;;;;;;15.68;13.98;;;;;;;18.03;nan;95210.75;4990973;28;20669;-70
2022/05/15 00:20:43;;;;;;;12.65;9.80;;;;;;;18.39;nan;95214.56;4991491;28;20201;-70
2022/05/15 00:23:11;;;;;;;10.80;9.80;;;;;;;18.51;nan;95216.38;4990877;28;20307;-70
2022/05/15 00:25:39;;;;;;;9.90;9.00;;;;;;;18.60;nan;95213.25;4991189;28;20213;-70
2022/05/15 00:28:09;;;;;;;11.68;9.13;;;;;;;18.77;nan;95210.47;4993463;28;20296;-71
2022/05/15 00:30:37;;;;;;;14.10;9.32;;;;;;;18.87;nan;95211.50;4994831;28;20233;-70
2022/05/15 00:33:06;;;;;;;8.52;7.82;;;;;;;18.85;nan;95203.06;4994280;28;20260;-70
2022/05/15 00:35:35;;;;;;;14.52;8.05;;;;;;;18.69;nan;95217.81;4994549;28;20213;-70
2022/05/15 00:38:03;;;;;;;8.00;7.07;;;;;;;18.79;nan;95213.75;4994247;28;20197;-71
2022/05/15 00:40:30;;;;;;;12.75;11.45;;;;;;;18.81;nan;95211.06;4994005;28;20205;-70
2022/05/15 00:42:57;;;;;;;18.45;16.25;;;;;;;18.84;nan;95206.53;4994005;28;20282;-70
2022/05/15 00:45:25;;;;;;;11.25;9.95;;;;;;;18.91;nan;95218.13;4994365;28;20202;-70
2022/05/15 00:47:52;;;;;;;8.80;7.93;;;;;;;18.72;nan;95212.50;4994005;28;20197;-71
2022/05/15 00:50:25;;;;;;;8.65;7.88;;;;;;;18.57;nan;95209.06;4994377;28;20571;-71
2022/05/15 00:52:57;;;;;;;16.95;14.00;;;;;;;18.24;nan;95222.31;4993400;28;20255;-71
2022/05/15 00:55:30;;;;;;;12.35;9.98;;;;;;;17.58;nan;95227.09;4994457;28;20199;-71
2022/05/15 00:58:00;;;;;;;9.82;6.97;;;;;;;17.64;nan;95212.19;4993778;28;20752;-71
2022/05/15 01:00:33;;;;;;;8.70;6.60;;;;;;;17.95;nan;95220.66;4994075;28;20212;-71
2022/05/15 01:03:05;;;;;;;7.05;6.38;;;;;;;17.90;nan;95208.06;4993646;28;20634;-70
2022/05/15 01:05:35;;;;;;;15.65;11.90;;;;;;;17.76;nan;95220.09;4993877;28;20204;-70
2022/05/15 01:08:02;;;;;;;20.73;13.80;;;;;;;17.64;nan;95221.59;4993484;28;20201;-71
2022/05/15 01:10:29;;;;;;;10.13;9.32;;;;;;;17.56;nan;95214.38;4993804;28;20279;-71
2022/05/15 01:12:58;;;;;;;20.48;16.55;;;;;;;17.49;nan;95220.78;4993438;28;20197;-71
2022/05/15 01:15:27;;;;;;;17.45;10.23;;;;;;;17.62;nan;95213.97;4993886;28;20208;-71
2022/05/15 01:17:56;;;;;;;8.50;7.85;;;;;;;17.93;nan;95212.22;4993141;28;20193;-71
2022/05/15 01:20:27;;;;;;;8.00;7.30;;;;;;;17.98;nan;95220.47;4993371;28;20631;-71
2022/05/15 01:22:55;;;;;;;9.23;8.05;;;;;;;17.91;nan;95196.03;4993145;28;20236;-71
2022/05/15 01:25:25;;;;;;;11.52;10.35;;;;;;;18.14;nan;95215.22;4993698;28;20193;-71
2022/05/15 01:27:57;;;;;;;11.07;9.77;;;;;;;18.25;nan;95217.97;4993383;28;20197;-71
2022/05/15 01:30:24;;;;;;;17.20;14.05;;;;;;;17.97;nan;95216.25;4993512;28;20644;-71
2022/05/15 01:32:50;;;;;;;10.13;9.13;;;;;;;17.44;nan;95203.97;4993346;28;20197;-71
2022/05/15 01:35:17;;;;;;;9.63;8.65;;;;;;;17.18;nan;95215.72;4993403;28;20268;-71
2022/05/15 01:37:44;;;;;;;7.47;6.88;;;;;;;16.95;nan;95215.28;4993275;28;20204;-71
2022/05/15 01:40:14;;;;;;;11.35;9.57;;;;;;;16.83;nan;95207.44;4993434;28;20224;-71
2022/05/15 01:42:41;;;;;;;10.50;9.43;;;;;;;16.59;nan;95219.84;4992688;28;20233;-71
2022/05/15 01:45:09;;;;;;;10.77;9.68;;;;;;;16.67;nan;95220.28;4993262;28;20618;-71
2022/05/15 01:47:36;;;;;;;7.60;6.95;;;;;;;16.62;nan;95215.38;4993096;28;20260;-70
2022/05/15 01:50:04;;;;;;;8.85;8.05;;;;;;;16.53;nan;95220.19;4993286;28;20198;-71
2022/05/15 01:52:31;;;;;;;12.65;9.82;;;;;;;16.45;nan;95212.09;4992705;28;20197;-71
2022/05/15 01:54:58;;;;;;;9.77;7.30;;;;;;;16.16;nan;95211.06;4997841;28;20631;-70
2022/05/15 01:57:26;;;;;;;8.30;6.03;;;;;;;15.89;nan;95213.34;5012007;28;20189;-70
2022/05/15 01:59:53;;;;;;;8.38;7.65;;;;;;;16.06;nan;95215.88;5006596;28;20197;-71
2022/05/15 02:02:20;;;;;;;9.73;8.75;;;;;;;15.74;nan;95222.66;4992502;28;20239;-70
2022/05/15 02:04:46;;;;;;;12.13;9.90;;;;;;;15.65;nan;95221.38;4996409;28;20196;-71
2022/05/15 02:07:14;;;;;;;11.73;8.77;;;;;;;15.71;nan;95220.25;5011881;28;20197;-70
2022/05/15 02:09:40;;;;;;;14.07;9.65;;;;;;;15.99;nan;95215.34;5008236;28;20204;-71
2022/05/15 02:12:08;;;;;;;10.10;8.77;;;;;;;16.33;nan;95218.72;4992194;28;20208;-71
2022/05/15 02:14:37;;;;;;;12.75;11.55;;;;;;;16.57;nan;95222.53;4994329;28;20669;-70
2022/05/15 02:17:04;;;;;;;10.80;7.75;;;;;;;16.66;nan;95222.03;5010758;28;20215;-70
2022/05/15 02:19:31;;;;;;;8.38;6.55;;;;;;;16.89;nan;95213.06;5010361;28;20664;-70
2022/05/15 02:21:57;;;;;;;7.35;6.55;;;;;;;17.03;nan;95224.31;5011854;28;20196;-71
2022/05/15 02:24:24;;;;;;;10.13;5.97;;;;;;;17.35;nan;95225.84;5010216;28;20288;-71
2022/05/15 02:26:51;;;;;;;6.38;5.53;;;;;;;17.54;nan;95226.47;4992165;28;20201;-71
2022/05/15 02:29:19;;;;;;;9.40;5.25;;;;;;;17.70;nan;95228.16;4991654;28;20237;-71
2022/05/15 02:31:47;;;;;;;5.97;5.05;;;;;;;17.78;nan;95224.25;5011264;28;20577;-71
2022/05/15 02:34:14;;;;;;;6.22;4.80;;;;;;;17.78;nan;95228.56;5009230;28;20230;-71
2022/05/15 02:36:41;;;;;;;5.57;5.00;;;;;;;17.68;nan;95229.09;4990144;28;20221;-71
2022/05/15 02:39:08;;;;;;;6.32;5.22;;;;;;;17.61;nan;95229.50;4989882;28;20196;-71
2022/05/15 02:41:35;;;;;;;5.72;5.20;;;;;;;17.56;nan;95237.50;5008783;28;20211;-71
2022/05/15 02:44:01;;;;;;;5.85;5.25;;;;;;;17.58;nan;95227.94;5009688;28;20319;-71
2022/05/15 02:46:28;;;;;;;6.03;5.40;;;;;;;17.65;nan;95234.41;4991217;28;20197;-71
2022/05/15 02:51:41;;;;;;;7.18;6.05;;;;;;;17.51;nan;95226.66;4991663;28;20216;-71
2022/05/15 02:54:08;;;;;;;5.93;5.45;;;;;;;17.44;nan;95233.06;4991547;28;20205;-71
2022/05/15 02:56:37;;;;;;;6.50;6.07;;;;;;;17.30;nan;95217.63;5010360;28;20200;-71
2022/05/15 02:59:04;;;;;;;6.35;5.85;;;;;;;17.21;nan;95236.94;5011261;28;20196;-71
2022/05/15 03:01:31;;;;;;;6.70;6.13;;;;;;;17.10;nan;95235.88;5009786;28;20196;-71
2022/05/15 03:03:59;;;;;;;10.25;5.75;;;;;;;17.06;nan;95249.81;5010847;28;20224;-71
2022/05/15 03:06:26;;;;;;;9.75;5.85;;;;;;;17.16;nan;95245.81;4992974;28;20251;-71
2022/05/15 03:08:53;;;;;;;8.77;6.70;;;;;;;17.34;nan;95243.00;4991618;28;20204;-71
2022/05/15 03:11:20;;;;;;;6.93;5.55;;;;;;;17.50;nan;95245.56;4992014;28;20208;-71
2022/05/15 03:13:47;;;;;;;6.55;5.88;;;;;;;17.49;nan;95253.34;4991722;28;20196;-71
2022/05/15 03:16:17;;;;;;;7.00;6.35;;;;;;;17.06;nan;95254.97;4991601;28;20208;-70
2022/05/15 03:18:48;;;;;;;8.57;6.53;;;;;;;16.76;nan;95253.16;4990849;28;20192;-71
2022/05/15 03:21:28;;;;;;;5.75;5.35;;;;;;;16.78;nan;95260.78;4991683;28;20657;-71
2022/05/15 03:23:56;;;;;;;7.50;6.30;;;;;;;16.73;nan;95252.50;4991343;28;20236;-70
2022/05/15 03:26:24;;;;;;;7.90;7.25;;;;;;;16.66;nan;95257.97;4991592;28;20208;-71
2022/05/15 03:28:51;;;;;;;7.82;5.68;;;;;;;16.92;nan;95253.97;4991160;28;20605;-70
2022/05/15 03:31:18;;;;;;;13.98;6.15;;;;;;;16.70;nan;95258.63;4991220;28;20205;-70
2022/05/15 03:33:45;;;;;;;7.10;6.03;;;;;;;17.00;nan;95253.56;4991128;28;20201;-71
2022/05/15 03:36:13;;;;;;;5.82;5.43;;;;;;;17.07;nan;95259.19;4991506;28;20267;-70
2022/05/15 03:38:42;;;;;;;7.70;6.63;;;;;;;17.15;nan;95259.56;4991091;28;20680;-70
2022/05/15 03:41:09;;;;;;;8.75;7.50;;;;;;;16.59;nan;95266.03;5006020;28;20254;-71
2022/05/15 03:43:36;;;;;;;6.05;5.68;;;;;;;16.96;nan;95260.59;5009858;28;20228;-72
2022/05/15 03:46:04;;;;;;;9.73;6.28;;;;;;;17.29;nan;95257.88;5009412;28;20587;-71
2022/05/15 03:48:30;;;;;;;6.45;5.88;;;;;;;17.72;nan;95257.19;5010623;28;20207;-70
2022/05/15 03:50:58;;;;;;;6.10;5.60;;;;;;;17.96;nan;95260.88;4995583;28;20208;-70
2022/05/15 03:53:25;;;;;;;7.50;5.32;;;;;;;18.26;nan;95264.19;4991031;28;20263;-71
2022/05/15 03:55:56;;;;;;;7.22;5.93;;;;;;;18.40;nan;95262.53;4991044;28;20217;-70
2022/05/15 03:58:24;;;;;;;7.25;5.50;;;;;;;18.55;nan;95267.56;4990909;28;20235;-71
2022/05/15 04:00:50;;;;;;;6.15;5.57;;;;;;;18.66;nan;95264.34;5003782;28;20212;-72
2022/05/15 04:03:17;;;;;;;9.80;5.45;;;;;;;18.74;nan;95267.28;5013913;28;20232;-72
2022/05/15 04:05:44;;;;;;;9.45;5.43;;;;;;;18.75;nan;95268.94;5001773;28;20580;-73
2022/05/15 04:08:11;;;;;;;6.78;5.70;;;;;;;18.72;nan;95269.13;4994646;28;20212;-72
2022/05/15 04:10:38;;;;;;;9.55;7.15;;;;;;;18.50;nan;95263.63;5003633;28;20233;-72
2022/05/15 04:13:07;;;;;;;7.80;6.57;;;;;;;18.46;nan;95262.97;5012326;28;20563;-72
2022/05/15 04:15:34;;;;;;;8.32;7.32;;;;;;;18.49;nan;95277.41;5001210;28;20197;-73
2022/05/15 04:18:01;;;;;;;8.38;7.45;;;;;;;18.49;nan;95277.41;4992337;28;20731;-72
2022/05/15 04:20:30;;;;;;;7.10;6.50;;;;;;;18.56;nan;95273.56;4993035;28;20200;-72
2022/05/15 04:22:57;;;;;;;12.43;8.40;;;;;;;18.55;nan;95282.19;4992404;28;20244;-72
2022/05/15 04:25:25;;;;;;;8.15;6.35;;;;;;;18.59;nan;95287.06;5002850;28;20201;-72
2022/05/15 04:27:52;;;;;;;7.78;6.82;;;;;;;18.84;nan;95286.38;5013806;28;20228;-72
2022/05/15 04:30:23;;;;;;;13.30;7.90;;;;;;;18.96;nan;95274.50;5004704;28;20235;-72
2022/05/15 04:32:51;;;;;;;11.57;8.50;;;;;;;19.21;nan;95286.66;4994357;28;20728;-73
2022/05/15 04:35:19;;;;;;;10.15;8.82;;;;;;;19.28;nan;95285.34;5002133;28;20193;-72
2022/05/15 04:37:46;;;;;;;11.55;8.70;;;;;;;19.32;nan;95284.19;5013712;28;20248;-72
2022/05/15 04:40:16;;;;;;;12.75;9.10;;;;;;;19.49;nan;95289.09;5005004;28;20208;-73
2022/05/15 04:42:43;;;;;;;12.25;9.32;;;;;;;19.56;nan;95286.97;4993799;28;20684;-72
2022/05/15 04:45:11;;;;;;;14.10;9.40;;;;;;;19.59;nan;95287.59;5000811;28;20200;-73
2022/05/15 04:47:39;;;;;;;11.45;8.68;;;;;;;19.76;nan;95277.94;5013610;28;20255;-73
2022/05/15 04:50:07;;;;;;;14.27;9.38;;;;;;;19.83;nan;95284.31;5006179;28;20203;-72
2022/05/15 04:52:34;;;;;;;12.00;8.55;;;;;;;19.96;nan;95290.34;4993277;28;20204;-73
2022/05/15 04:55:02;;;;;;;12.20;7.82;;;;;;;20.15;nan;95290.75;4994046;28;20204;-73
2022/05/15 04:57:29;;;;;;;9.57;8.57;;;;;;;20.18;nan;95287.97;4993407;28;20796;-73
2022/05/15 04:59:55;;;;;;;8.93;7.47;;;;;;;20.37;nan;95290.97;4993987;28;20245;-72
2022/05/15 05:02:23;;;;;;;10.73;7.80;;;;;;;20.66;nan;95288.13;4993555;28;20477;-73
2022/05/15 05:04:52;;;;;;;9.77;7.50;;;;;;;20.92;nan;95294.06;4993659;28;20724;-72
2022/05/15 05:07:19;;;;;;;8.43;7.35;;;;;;;21.41;nan;95299.16;4993681;28;20259;-73
2022/05/15 05:09:45;;;;;;;7.80;7.03;;;;;;;22.09;nan;95290.69;4994146;28;20193;-73
2022/05/15 05:12:13;;;;;;;12.20;6.30;;;;;;;23.54;nan;95282.75;4993063;28;20193;-72
2022/05/15 05:14:40;;;;;;;8.43;7.03;;;;;;;25.61;nan;95285.81;4993747;28;20720;-74
2022/05/15 05:17:06;;;;;;;8.77;5.43;;;;;;;27.90;nan;95277.31;4993239;28;20299;-73
2022/05/15 05:19:33;;;;;;;9.15;6.45;;;;;;;30.05;nan;95271.59;4993423;28;20262;-73
2022/05/15 05:22:02;;;;;;;11.32;7.50;;;;;;;32.20;nan;95266.59;4993105;28;20193;-73
2022/05/15 05:24:29;;;;;;;12.27;7.90;;;;;;;33.57;nan;95271.25;4994613;28;20229;-73
2022/05/15 05:26:56;;;;;;;9.50;7.35;;;;;;;35.07;nan;95269.94;5012979;28;20213;-75
2022/05/15 05:29:23;;;;;;;9.02;6.07;;;;;;;36.09;nan;95271.63;5011197;28;20240;-73
2022/05/15 05:31:50;;;;;;;6.72;6.10;;;;;;;36.04;nan;95271.41;4993098;28;20222;-75
2022/05/15 05:34:17;;;;;;;8.48;6.20;;;;;;;36.83;nan;95271.34;4993156;28;20198;-74
2022/05/15 05:36:44;;;;;;;18.98;6.32;;;;;;;36.36;nan;95267.97;4992925;28;20197;-76
2022/05/15 05:39:13;;;;;;;9.25;6.07;;;;;;;36.71;nan;95278.28;4992682;28;20700;-74
2022/05/15 05:41:40;;;;;;;8.32;5.22;;;;;;;36.43;nan;95271.41;4993034;28;20205;-73
2022/05/15 05:44:07;;;;;;;7.28;5.68;;;;;;;36.10;nan;95266.13;4992555;28;20735;-73
2022/05/15 05:46:34;;;;;;;7.75;6.00;;;;;;;36.49;nan;95268.97;4992972;28;20634;-75
2022/05/15 05:49:01;;;;;;;6.00;5.40;;;;;;;36.46;nan;95271.00;4992876;28;20201;-76
2022/05/15 05:51:28;;;;;;;6.55;5.40;;;;;;;36.79;nan;95265.66;5010230;28;20555;-74
2022/05/15 05:53:55;;;;;;;6.78;6.28;;;;;;;36.79;nan;95270.16;5012292;28;20223;-75
2022/05/15 05:56:23;;;;;;;9.68;6.18;;;;;;;36.37;nan;95271.44;4994394;28;20196;-73
2022/05/15 05:58:50;;;;;;;7.32;6.82;;;;;;;36.51;nan;95273.03;4992635;28;20204;-74
2022/05/15 06:01:17;;;;;;;11.63;5.53;;;;;;;36.04;nan;95272.22;5008403;28;20270;-74
2022/05/15 06:06:28;;;;;;;6.32;5.63;;;;;;;36.20;nan;95271.00;5020096;28;20214;-73
2022/05/15 06:08:54;;;;;;;11.63;8.88;;;;;;;35.98;nan;95272.22;5014492;28;20204;-73
2022/05/15 06:11:23;;;;;;;7.35;5.25;;;;;;;35.83;nan;95268.97;4994527;28;20633;-74
2022/05/15 06:13:49;;;;;;;5.10;4.00;;;;;;;35.76;nan;95274.22;4992304;28;20208;-73
2022/05/15 06:16:16;;;;;;;6.82;4.97;;;;;;;35.29;nan;95259.28;4992610;28;20676;-74
2022/05/15 06:18:43;;;;;;;6.03;4.30;;;;;;;34.68;nan;95264.44;4992169;28;20681;-74
2022/05/15 06:21:10;;;;;;;8.77;4.85;;;;;;;34.29;nan;95270.31;5007427;28;20589;-74
2022/05/15 06:23:37;;;;;;;7.20;4.78;;;;;;;33.80;nan;95279.00;5011432;28;20711;-74
2022/05/15 06:26:04;;;;;;;4.47;4.18;;;;;;;33.78;nan;95273.94;4996222;28;20558;-73
2022/05/15 06:28:34;;;;;;;6.25;5.45;;;;;;;33.00;nan;95274.66;4991412;28;20205;-73
2022/05/15 06:31:01;;;;;;;6.47;5.00;;;;;;;32.86;nan;95278.13;4992566;28;20201;-74
2022/05/15 06:33:28;;;;;;;6.72;5.05;;;;;;;32.44;nan;95276.91;4991978;28;20204;-73
2022/05/15 06:35:56;;;;;;;4.82;4.20;;;;;;;32.04;nan;95277.28;4992264;28;20197;-73
2022/05/15 06:38:23;;;;;;;5.68;4.03;;;;;;;31.33;nan;95274.00;4991788;28;20228;-75
2022/05/15 06:40:50;;;;;;;10.93;4.18;;;;;;;30.53;nan;95269.88;4991919;28;20625;-73
2022/05/15 06:43:17;;;;;;;5.38;4.85;;;;;;;29.95;nan;95278.78;4991702;28;20201;-73
2022/05/15 06:45:47;;;;;;;4.40;4.10;;;;;;;28.73;nan;95281.09;4992267;28;20259;-75
2022/05/15 06:48:14;;;;;;;5.82;4.38;;;;;;;27.63;nan;95270.41;4991652;28;20631;-74
2022/05/15 06:50:41;;;;;;;4.97;4.20;;;;;;;26.72;nan;95283.44;4992134;28;20201;-72
2022/05/15 06:53:11;;;;;;;6.80;6.20;;;;;;;26.15;nan;95284.44;4991196;28;20212;-73
2022/05/15 06:57:28;;;;;;;11.35;6.25;;;;;;;25.89;nan;95270.34;4991635;28;20209;-73
2022/05/15 06:58:24;;;;;;;6.53;4.75;;;;;;;26.14;nan;95281.97;4991003;28;20664;-73
2022/05/15 07:00:53;;;;;;;7.07;4.00;;;;;;;26.00;nan;95283.19;4991542;28;20212;-74
2022/05/15 07:03:20;;;;;;;4.45;3.92;;;;;;;26.18;nan;95284.16;4991416;28;20665;-72
2022/05/15 07:05:46;;;;;;;3.70;3.38;;;;;;;26.46;nan;95276.41;4991673;28;20201;-73
2022/05/15 07:08:15;;;;;;;3.72;3.38;;;;;;;26.27;nan;95282.47;4991681;28;20197;-71
2022/05/15 07:10:42;;;;;;;7.55;4.05;;;;;;;26.46;nan;95273.81;5002635;28;20263;-72
2022/05/15 07:13:09;;;;;;;4.60;4.20;;;;;;;26.55;nan;95262.50;5009365;28;20196;-72
2022/05/15 07:15:37;;;;;;;11.32;3.85;;;;;;;26.76;nan;95271.72;4999657;28;20201;-74
2022/05/15 07:18:06;;;;;;;4.35;3.30;;;;;;;26.49;nan;95271.72;4991297;28;20649;-72
2022/05/15 07:20:32;;;;;;;6.25;3.38;;;;;;;26.79;nan;95268.03;4991546;28;20327;-72
2022/05/15 07:22:59;;;;;;;3.80;3.50;;;;;;;26.56;nan;95277.19;4991287;28;20197;-74
2022/05/15 07:25:27;;;;;;;4.00;3.28;;;;;;;26.35;nan;95286.03;4991636;28;20704;-73
2022/05/15 07:27:54;;;;;;;4.25;3.00;;;;;;;26.32;nan;95270.69;4991491;28;20287;-73
2022/05/15 07:30:21;;;;;;;7.50;3.22;;;;;;;26.63;nan;95286.09;4991477;28;20236;-72
2022/05/15 07:32:48;;;;;;;2.95;2.63;;;;;;;26.94;nan;95292.66;4990463;28;20579;-72
2022/05/15 07:35:18;;;;;;;8.13;4.07;;;;;;;26.94;nan;95287.44;4989854;28;20189;-73
2022/05/15 07:37:45;;;;;;;3.60;3.30;;;;;;;26.18;nan;95289.34;4993337;28;20299;-73
2022/05/15 07:40:13;;;;;;;3.63;3.17;;;;;;;25.99;nan;95289.38;5000527;28;20200;-72
2022/05/15 07:42:41;;;;;;;3.17;2.97;;;;;;;25.58;nan;95280.88;5012619;28;20196;-73
2022/05/15 07:45:10;;;;;;;4.70;2.92;;;;;;;25.49;nan;95286.91;5011732;28;20224;-72
2022/05/15 07:47:37;;;;;;;6.28;3.08;;;;;;;25.19;nan;95287.03;5013860;28;20204;-73
2022/05/15 07:50:05;;;;;;;3.47;2.47;;;;;;;25.11;nan;95297.28;5007997;28;20260;-73
2022/05/15 07:52:33;;;;;;;4.28;2.95;;;;;;;25.20;nan;95291.28;4995041;28;20273;-72
2022/05/15 07:55:00;;;;;;;5.10;2.55;;;;;;;25.47;nan;95288.03;5000754;28;20203;-73
2022/05/15 07:57:27;;;;;;;9.75;3.40;;;;;;;25.26;nan;95293.31;5014606;28;20204;-74
2022/05/15 07:59:56;;;;;;;2.97;2.78;;;;;;;25.69;nan;95291.22;5008656;28;20211;-73
2022/05/15 08:02:23;;;;;;;3.75;2.88;;;;;;;25.95;nan;95281.03;4995015;28;20197;-72
2022/05/15 08:10:19;;;;;;;3.85;2.70;;;;;;;25.58;nan;95298.28;4994918;28;20247;-72
2022/05/15 08:12:46;;;;;;;8.93;3.15;;;;;;;25.30;nan;95300.72;4994736;28;20197;-73
2022/05/15 08:15:13;;;;;;;3.95;2.63;;;;;;;24.82;nan;95303.19;4995098;28;20201;-73
2022/05/15 08:17:40;;;;;;;6.68;2.70;;;;;;;24.55;nan;95310.75;4994440;28;20197;-73
2022/05/15 08:25:39;;;;;;;3.22;2.40;;;;;;;24.60;nan;95318.97;4994884;28;20286;-74
2022/05/15 08:28:06;;;;;;;3.50;2.33;;;;;;;24.66;nan;95321.88;4994495;28;20197;-74
2022/05/15 08:30:34;;;;;;;6.05;2.78;;;;;;;24.91;nan;95325.81;4994803;28;20240;-73
2022/05/15 08:33:02;;;;;;;3.97;2.50;;;;;;;24.97;nan;95322.72;4994423;28;20201;-73
2022/05/15 08:35:29;;;;;;;6.85;2.90;;;;;;;24.87;nan;95315.81;4994562;28;20197;-73
2022/05/15 08:37:58;;;;;;;2.95;2.70;;;;;;;24.79;nan;95311.25;4994206;28;20200;-74
2022/05/15 08:40:30;;;;;;;7.65;2.60;;;;;;;24.96;nan;95317.66;5003045;28;20258;-73
2022/05/15 08:42:59;;;;;;;4.50;2.20;;;;;;;25.13;nan;95316.19;5013416;28;20616;-73
2022/05/15 08:45:30;;;;;;;5.75;2.50;;;;;;;25.15;nan;95314.28;5003466;28;20275;-72
2022/05/15 08:48:02;;;;;;;2.17;2.00;;;;;;;25.28;nan;95320.03;4992608;28;20205;-75
2022/05/15 08:50:34;;;;;;;10.27;2.83;;;;;;;25.45;nan;95308.97;4993185;28;20292;-73
2022/05/15 08:53:06;;;;;;;10.18;4.43;;;;;;;25.69;nan;95314.63;4993752;28;20193;-73
2022/05/15 08:55:37;;;;;;;3.58;2.13;;;;;;;25.38;nan;95313.06;5004084;28;20197;-76
2022/05/15 08:58:06;;;;;;;13.73;7.28;;;;;;;25.77;nan;95306.94;5013267;28;20201;-73
2022/05/15 09:00:37;;;;;;;6.15;2.47;;;;;;;26.09;nan;95304.03;5008531;28;20212;-73
2022/05/15 09:03:13;;;;;;;2.97;2.25;;;;;;;26.30;nan;95313.47;4993398;28;20534;-73
2022/05/15 09:05:45;;;;;;;4.53;2.10;;;;;;;26.22;nan;95314.16;4991699;28;20244;-72
2022/05/15 09:08:27;;;;;;;2.28;2.00;;;;;;;26.03;nan;95301.97;4990495;28;20202;-74
2022/05/15 09:11:01;;;;;;;2.17;1.98;;;;;;;26.33;nan;95306.22;4991770;28;20205;-74
2022/05/15 09:13:35;;;;;;;4.50;3.90;;;;;;;26.39;nan;95303.03;4991667;28;20202;-74
2022/05/15 09:16:04;;;;;;;4.30;3.90;;;;;;;26.55;nan;95297.22;4992324;28;20208;-73
2022/05/15 09:18:33;;;;;;;6.15;2.20;;;;;;;26.46;nan;95286.84;4993369;28;20263;-77
2022/05/15 09:21:04;;;;;;;5.70;2.35;;;;;;;26.26;nan;95292.06;4994104;28;20259;-73
2022/05/15 09:23:35;;;;;;;2.38;2.08;;;;;;;26.36;nan;95297.28;4992412;28;20720;-72
2022/05/15 09:26:13;;;;;;;1.90;1.80;;;;;;;26.43;nan;95293.97;5005531;28;20228;-75
2022/05/15 09:28:43;;;;;;;4.40;2.20;;;;;;;26.45;nan;95304.25;5010476;28;20235;-73
2022/05/15 09:31:24;;;;;;;2.45;2.15;;;;;;;26.61;nan;95291.44;5009715;28;20196;-73
2022/05/15 09:33:56;;;;;;;3.33;1.98;;;;;;;26.68;nan;95289.91;5010455;28;20200;-73
2022/05/15 09:36:26;;;;;;;3.95;2.30;;;;;;;26.57;nan;95287.47;4993083;28;20673;-73
2022/05/15 09:39:11;;;;;;;3.88;1.88;;;;;;;26.54;nan;95292.16;4991764;28;20190;-73
2022/05/15 09:44:26;;;;;;;2.92;2.28;;;;;;;26.75;nan;95290.13;4993301;28;20231;-75
2022/05/15 09:46:59;;;;;;;3.42;2.20;;;;;;;26.68;nan;95286.47;4992801;28;20201;-74
2022/05/15 09:49:28;;;;;;;3.33;2.13;;;;;;;26.54;nan;95285.16;4993856;28;20630;-73
2022/05/15 09:51:58;;;;;;;1.92;1.83;;;;;;;26.28;nan;95295.34;5012388;28;20200;-75
2022/05/15 09:54:44;;;;;;;2.42;2.08;;;;;;;26.25;nan;95295.63;5010937;28;20205;-73
2022/05/15 09:57:18;;;;;;;2.33;2.13;;;;;;;26.37;nan;95284.13;5012673;28;20626;-74
2022/05/15 09:59:53;;;;;;;4.82;2.13;;;;;;;26.53;nan;95282.69;5010324;28;20255;-73
2022/05/15 10:02:22;;;;;;;9.15;1.95;;;;;;;26.70;nan;95285.38;5012394;28;20200;-73
2022/05/15 10:04:51;;;;;;;4.90;2.20;;;;;;;26.72;nan;95282.63;5007090;28;20232;-74
2022/05/15 10:07:32;;;;;;;2.28;1.90;;;;;;;26.86;nan;95282.13;4992648;28;20592;-74
2022/05/15 10:10:15;;;;;;;2.45;1.80;;;;;;;26.81;nan;95286.94;4992789;28;20232;-72
2022/05/15 10:12:45;;;;;;;7.18;2.03;;;;;;;26.82;nan;95278.16;4992869;28;20196;-73
2022/05/15 10:15:12;;;;;;;1.88;1.77;;;;;;;26.87;nan;95282.94;4992636;28;20197;-73
2022/05/15 10:17:45;;;;;;;12.25;10.50;;;;;;;27.08;nan;95284.38;4992103;28;20201;-72
2022/05/15 10:20:21;;;;;;;4.65;3.40;;;;;;;27.00;nan;95283.44;5000038;28;20196;-73
2022/05/15 10:22:54;;;;;;;3.78;2.10;;;;;;;27.19;nan;95285.13;5012147;28;20246;-73
2022/05/15 10:25:26;;;;;;;5.28;1.67;;;;;;;27.22;nan;95290.06;5002590;28;20225;-73
2022/05/15 10:28:01;;;;;;;5.28;2.17;;;;;;;27.21;nan;95278.81;4992140;28;20227;-73
2022/05/15 10:30:34;;;;;;;5.60;2.22;;;;;;;27.16;nan;95275.81;4992209;28;20243;-74
2022/05/15 10:33:06;;;;;;;4.07;2.00;;;;;;;27.27;nan;95277.38;4992072;28;20189;-73
2022/05/15 10:35:43;;;;;;;2.33;2.13;;;;;;;27.29;nan;95271.03;4992326;28;20689;-72
2022/05/15 10:38:22;;;;;;;1.80;1.70;;;;;;;27.09;nan;95267.75;4991700;28;20201;-73
2022/05/15 10:40:54;;;;;;;2.28;2.08;;;;;;;26.98;nan;95273.16;4992162;28;20205;-73
2022/05/15 10:43:38;;;;;;;1.88;1.70;;;;;;;26.82;nan;95267.72;4991833;28;20228;-74
2022/05/15 10:46:14;;;;;;;2.55;2.35;;;;;;;27.10;nan;95276.41;4992280;28;20233;-75
2022/05/15 10:48:52;;;;;;;5.30;3.90;;;;;;;26.96;nan;95269.91;4991725;28;20687;-72
2022/05/15 10:51:23;;;;;;;3.17;2.40;;;;;;;27.04;nan;95267.34;4992088;28;20212;-74
2022/05/15 10:57:26;;;;;;;2.08;1.90;;;;;;;26.57;nan;95263.19;4956426;28;20287;-74
2022/05/15 11:00:09;;;;;;;4.68;2.03;;;;;;;26.44;nan;95263.53;4974898;28;20204;-74
2022/05/15 11:03:03;;;;;;;5.47;2.20;;;;;;;26.55;nan;95254.69;4991603;28;20208;-74
2022/05/15 11:05:31;;;;;;;2.80;2.60;;;;;;;26.83;nan;95251.13;4975051;28;20379;-74
2022/05/15 11:08:06;;;;;;;3.00;2.80;;;;;;;26.81;nan;95255.66;4981570;28;20201;-74
2022/05/15 11:10:40;;;;;;;7.15;2.28;;;;;;;26.79;nan;95257.59;4981498;28;20237;-74
2022/05/15 11:13:12;;;;;;;3.88;2.13;;;;;;;26.52;nan;95249.75;4982830;28;20617;-73
2022/05/15 11:15:56;;;;;;;2.67;2.15;;;;;;;26.69;nan;95256.84;4980385;28;20208;-75
2022/05/15 11:18:40;;;;;;;4.20;3.13;;;;;;;26.74;nan;95246.78;4982976;28;20212;-74
2022/05/15 11:21:11;;;;;;;3.03;1.92;;;;;;;26.81;nan;95247.84;4982741;28;21258;-73
2022/05/15 11:23:42;;;;;;;3.60;2.42;;;;;;;27.03;nan;95234.41;4982483;28;20208;-74
2022/05/15 11:26:15;;;;;;;8.27;2.85;;;;;;;27.05;nan;95235.09;4980840;28;20251;-73
2022/05/15 11:28:47;;;;;;;5.22;3.40;;;;;;;27.27;nan;95238.22;4983472;28;20236;-73
2022/05/15 11:31:18;;;;;;;4.63;3.63;;;;;;;27.38;nan;95243.25;4981568;28;20222;-73
2022/05/15 11:33:52;;;;;;;7.75;2.97;;;;;;;26.95;nan;95223.91;4983098;28;20201;-73
2022/05/15 11:36:37;;;;;;;2.70;2.50;;;;;;;27.08;nan;95226.97;4981657;28;20208;-74
2022/05/15 11:39:22;;;;;;;3.92;2.72;;;;;;;27.39;nan;95229.22;4983188;28;20205;-74
2022/05/15 11:42:15;;;;;;;7.53;5.72;;;;;;;27.27;nan;95230.41;4983101;28;20770;-74
2022/05/15 11:44:46;;;;;;;5.85;3.78;;;;;;;27.47;nan;95231.09;4982987;28;20813;-69
2022/05/15 11:47:31;;;;;;;3.70;3.25;;;;;;;27.33;nan;95237.66;4980728;28;21019;-69
2022/05/15 11:50:05;;;;;;;3.67;2.55;;;;;;;27.37;nan;95236.38;4982892;28;20234;-70
2022/05/15 11:52:37;;;;;;;5.43;2.38;;;;;;;27.70;nan;95217.44;4981859;28;20209;-71
2022/05/15 11:55:37;;;;;;;2.90;2.70;;;;;;;27.97;nan;95221.69;4983674;28;20208;-70
2022/05/15 11:58:16;;;;;;;5.25;2.72;;;;;;;27.90;nan;95227.69;4982695;28;20610;-70
2022/05/15 12:01:00;;;;;;;3.55;2.65;;;;;;;27.86;nan;95226.34;4983109;28;20415;-71
2022/05/15 12:03:46;;;;;;;2.92;2.63;;;;;;;27.84;nan;95228.28;4981774;28;20200;-71
2022/05/15 12:06:15;;;;;;;3.35;2.90;;;;;;;27.29;nan;95225.84;4979687;28;20224;-71
2022/05/15 12:08:43;;;;;;;2.35;2.25;;;;;;;27.08;nan;95226.97;4982473;28;20208;-71
2022/05/15 12:11:31;;;;;;;4.55;2.50;;;;;;;26.66;nan;95224.06;4981348;28;20201;-70
2022/05/15 12:14:00;;;;;;;4.82;2.33;;;;;;;26.84;nan;95218.03;4980925;28;20499;-69
2022/05/15 12:16:34;;;;;;;6.45;2.35;;;;;;;26.98;nan;95218.38;4980441;28;20196;-70
2022/05/15 12:19:06;;;;;;;4.03;2.63;;;;;;;27.12;nan;95218.84;4982268;28;20707;-70
2022/05/15 12:21:41;;;;;;;4.97;2.75;;;;;;;27.05;nan;95216.84;4980546;28;20208;-71
2022/05/15 12:24:30;;;;;;;9.27;2.58;;;;;;;27.27;nan;95218.19;4984579;28;20215;-70